Time;durP1;ratioP1;P1;durP2;ratioP2;P2;SDS_P1;SDS_P2;PMS_P1;PMS_P2;Temp;Humidity;BMP_temperature;BMP_pressure;BME280_temperature;BME280_humidity;BME280_pressure;Samples;Min_cycle;Max_cycle;Signal;HPM_P1;HPM_P2
2022/01/11 00:01:45;;;;;;;28.63;19.30;;;5.10;74.20;;;;;;5034195;28;20480;-86
2022/01/11 00:04:12;;;;;;;23.77;17.60;;;5.20;74.20;;;;;;5040720;28;20052;-86
2022/01/11 00:06:47;;;;;;;25.50;16.57;;;5.20;74.30;;;;;;5033838;28;20036;-86
2022/01/11 00:09:23;;;;;;;21.07;14.93;;;5.10;74.10;;;;;;5034185;28;20029;-86
2022/01/11 00:11:50;;;;;;;22.27;15.27;;;5.10;74.10;;;;;;5033394;28;20030;-86
2022/01/11 00:14:17;;;;;;;27.57;17.20;;;5.10;74.00;;;;;;5045531;28;20108;-86
2022/01/11 00:16:42;;;;;;;24.03;16.40;;;5.10;74.20;;;;;;5033209;28;20045;-87
2022/01/11 00:19:09;;;;;;;25.57;16.93;;;5.10;74.10;;;;;;5032705;28;20025;-86
2022/01/11 00:21:39;;;;;;;24.50;17.00;;;5.10;73.90;;;;;;5033530;28;20482;-86
2022/01/11 00:26:50;;;;;;;25.47;17.90;;;5.10;74.10;;;;;;5036282;28;20040;-86
2022/01/11 00:29:16;;;;;;;25.43;16.83;;;5.00;74.00;;;;;;5032981;28;20022;-86
2022/01/11 00:31:44;;;;;;;22.03;16.40;;;5.00;74.20;;;;;;5033859;28;20088;-86
2022/01/11 00:34:10;;;;;;;21.63;16.00;;;5.00;74.30;;;;;;5032483;28;20026;-87
2022/01/11 00:36:44;;;;;;;18.77;13.40;;;5.00;74.20;;;;;;5035433;28;20520;-86
2022/01/11 00:39:11;;;;;;;17.93;12.73;;;5.00;74.10;;;;;;5034057;28;20100;-87
2022/01/11 00:41:42;;;;;;;15.23;11.40;;;5.00;74.00;;;;;;5032655;28;20033;-86
2022/01/11 00:44:09;;;;;;;19.67;14.10;;;5.00;73.90;;;;;;5043513;28;20067;-86
2022/01/11 00:46:35;;;;;;;19.80;14.63;;;5.00;73.80;;;;;;5032479;28;20480;-86
2022/01/11 00:49:01;;;;;;;23.53;16.13;;;5.00;73.70;;;;;;5032467;28;20472;-86
2022/01/11 00:51:27;;;;;;;23.60;16.70;;;5.00;73.80;;;;;;5029025;28;20026;-86
2022/01/11 00:53:53;;;;;;;26.50;17.63;;;5.00;73.80;;;;;;5032238;28;20021;-86
2022/01/11 00:56:19;;;;;;;23.43;16.53;;;5.00;73.90;;;;;;5033228;28;20021;-86
2022/01/11 00:58:46;;;;;;;22.90;15.03;;;5.00;73.90;;;;;;5032647;28;20025;-86
2022/01/11 01:01:11;;;;;;;16.90;12.17;;;5.00;73.80;;;;;;5033235;28;20033;-86
2022/01/11 01:03:37;;;;;;;13.57;10.13;;;5.10;73.80;;;;;;5032622;28;20033;-86
2022/01/11 01:06:05;;;;;;;10.13;7.73;;;5.10;73.90;;;;;;5031211;28;20026;-86
2022/01/11 01:08:30;;;;;;;13.20;9.20;;;5.20;73.80;;;;;;5035349;28;20026;-86
2022/01/11 01:10:56;;;;;;;10.63;8.40;;;5.20;73.60;;;;;;5031082;28;20092;-86
2022/01/11 01:13:27;;;;;;;13.77;10.33;;;5.30;73.40;;;;;;5032205;28;20021;-86
2022/01/11 01:15:55;;;;;;;16.23;11.57;;;5.30;73.10;;;;;;5032391;28;20037;-86
2022/01/11 01:18:24;;;;;;;19.97;13.73;;;5.30;73.00;;;;;;5031887;28;20029;-85
2022/01/11 01:20:52;;;;;;;23.50;14.80;;;5.20;73.00;;;;;;5047985;28;20029;-85
2022/01/11 01:23:19;;;;;;;23.37;16.23;;;5.20;73.00;;;;;;5042768;28;20040;-85
2022/01/11 01:25:46;;;;;;;28.67;17.73;;;5.10;73.10;;;;;;5035997;28;20112;-86
2022/01/11 01:28:13;;;;;;;29.10;18.60;;;5.10;73.20;;;;;;5028403;28;20488;-86
2022/01/11 01:30:39;;;;;;;26.50;18.67;;;5.10;73.30;;;;;;5034710;28;20033;-86
2022/01/11 01:33:06;;;;;;;28.07;17.33;;;5.10;73.40;;;;;;5031284;28;20480;-86
2022/01/11 01:35:39;;;;;;;25.53;16.77;;;5.10;73.50;;;;;;5032150;28;20026;-85
2022/01/11 01:38:06;;;;;;;24.35;16.65;;;5.10;73.40;;;;;;5029586;28;20021;-86
2022/01/11 01:40:38;;;;;;;25.13;17.87;;;5.10;73.50;;;;;;5018181;28;20026;-85
2022/01/11 01:43:07;;;;;;;22.00;16.17;;;5.10;73.60;;;;;;5034011;28;20542;-85
2022/01/11 01:45:33;;;;;;;23.50;16.00;;;5.10;73.60;;;;;;5039640;28;20434;-86
2022/01/11 01:47:59;;;;;;;21.37;15.87;;;5.10;73.60;;;;;;5053916;28;20100;-85
2022/01/11 01:50:26;;;;;;;25.40;18.03;;;5.10;73.60;;;;;;5054578;28;20029;-84
2022/01/11 01:52:53;;;;;;;22.90;17.27;;;5.10;73.50;;;;;;5037805;28;20022;-85
2022/01/11 01:55:20;;;;;;;23.27;17.73;;;5.10;73.60;;;;;;5031283;28;20029;-85
2022/01/11 01:57:45;;;;;;;24.97;18.00;;;5.10;73.60;;;;;;5043010;28;20032;-85
2022/01/11 02:00:12;;;;;;;29.70;18.47;;;5.10;73.50;;;;;;5043787;28;20072;-85
2022/01/11 02:02:39;;;;;;;26.27;17.73;;;5.10;73.60;;;;;;5031563;28;20025;-85
2022/01/11 02:05:06;;;;;;;25.83;18.43;;;5.10;73.50;;;;;;5030121;28;20033;-86
2022/01/11 02:07:35;;;;;;;26.90;19.40;;;5.10;73.60;;;;;;5030910;28;20037;-86
2022/01/11 02:10:03;;;;;;;33.20;21.47;;;5.10;73.60;;;;;;5030277;28;20025;-85
2022/01/11 02:12:29;;;;;;;36.10;23.43;;;5.10;73.60;;;;;;5030453;28;20018;-86
2022/01/11 02:14:55;;;;;;;31.57;20.80;;;5.00;73.60;;;;;;5043037;28;20024;-85
2022/01/11 02:17:20;;;;;;;34.50;21.57;;;5.10;73.70;;;;;;5039238;28;20045;-86
2022/01/11 02:19:46;;;;;;;29.23;20.80;;;5.10;73.60;;;;;;5039023;28;20040;-86
2022/01/11 02:22:12;;;;;;;34.67;22.27;;;5.10;73.70;;;;;;5039242;28;20033;-86
2022/01/11 02:24:38;;;;;;;36.23;23.07;;;5.00;73.70;;;;;;5031805;28;20435;-86
2022/01/11 02:27:04;;;;;;;36.20;24.73;;;5.00;73.80;;;;;;5023310;28;20366;-85
2022/01/11 02:29:31;;;;;;;29.77;21.47;;;5.00;73.90;;;;;;5042688;28;20516;-86
2022/01/11 02:31:57;;;;;;;30.47;21.20;;;5.00;73.90;;;;;;5027854;28;20463;-86
2022/01/11 02:34:23;;;;;;;32.10;21.73;;;5.00;73.90;;;;;;5051834;28;20052;-86
2022/01/11 02:36:48;;;;;;;31.20;20.93;;;5.00;73.80;;;;;;5029794;28;20480;-85
2022/01/11 02:39:14;;;;;;;29.77;20.83;;;5.10;73.80;;;;;;5046087;28;20021;-86
2022/01/11 02:41:51;;;;;;;33.23;20.73;;;5.10;73.90;;;;;;5044152;28;20052;-86
2022/01/11 02:44:17;;;;;;;29.20;20.53;;;5.10;73.90;;;;;;5025706;28;20071;-86
2022/01/11 02:46:43;;;;;;;28.73;19.80;;;5.00;73.70;;;;;;5030152;28;20500;-86
2022/01/11 02:49:09;;;;;;;27.70;19.63;;;5.00;73.90;;;;;;5031911;28;20033;-86
2022/01/11 02:51:34;;;;;;;29.47;20.60;;;5.10;74.00;;;;;;5047710;28;20030;-86
2022/01/11 02:54:00;;;;;;;29.60;20.73;;;5.10;73.80;;;;;;5036206;28;20024;-86
2022/01/11 02:56:26;;;;;;;30.83;20.60;;;5.10;73.90;;;;;;5029855;28;20060;-86
2022/01/11 02:58:52;;;;;;;27.83;19.40;;;5.10;73.80;;;;;;5039723;28;20064;-85
2022/01/11 03:01:18;;;;;;;28.47;20.60;;;5.20;73.80;;;;;;5047601;28;20029;-86
2022/01/11 03:03:44;;;;;;;30.57;20.63;;;5.20;73.70;;;;;;5047117;28;20029;-86
2022/01/11 03:06:11;;;;;;;30.93;20.63;;;5.10;73.50;;;;;;5038182;28;20028;-86
2022/01/11 03:08:42;;;;;;;31.23;21.07;;;5.10;73.80;;;;;;5036951;28;20515;-86
2022/01/11 03:11:08;;;;;;;33.03;21.00;;;5.10;73.90;;;;;;5041814;28;20046;-86
2022/01/11 03:13:35;;;;;;;30.27;21.93;;;5.10;73.90;;;;;;5042157;28;20025;-86
2022/01/11 03:16:02;;;;;;;30.63;21.33;;;5.10;73.70;;;;;;5045119;28;20126;-86
2022/01/11 03:18:28;;;;;;;31.63;21.43;;;5.10;73.70;;;;;;5033281;28;20121;-86
2022/01/11 03:20:54;;;;;;;30.50;20.97;;;5.10;73.90;;;;;;5032606;28;20116;-86
2022/01/11 03:23:21;;;;;;;40.30;23.53;;;5.10;73.60;;;;;;5032058;28;20506;-86
2022/01/11 03:25:50;;;;;;;33.57;22.60;;;5.10;73.60;;;;;;5061900;28;20408;-86
2022/01/11 03:28:16;;;;;;;36.10;23.80;;;5.10;73.80;;;;;;5032659;28;20041;-86
2022/01/11 03:30:42;;;;;;;36.23;23.67;;;5.10;73.80;;;;;;5050155;28;20451;-86
2022/01/11 03:33:08;;;;;;;35.37;24.53;;;5.10;73.80;;;;;;5038829;28;20096;-86
2022/01/11 03:35:37;;;;;;;43.60;24.27;;;5.10;73.90;;;;;;5032302;28;20022;-86
2022/01/11 03:38:05;;;;;;;36.77;24.80;;;5.10;73.90;;;;;;5039170;28;20375;-86
2022/01/11 03:40:32;;;;;;;40.83;24.43;;;5.10;73.90;;;;;;5064429;28;20488;-86
2022/01/11 03:42:58;;;;;;;39.83;25.00;;;5.10;73.90;;;;;;5033975;28;20034;-86
2022/01/11 03:45:25;;;;;;;38.80;25.17;;;5.10;74.00;;;;;;5035664;28;20064;-86
2022/01/11 03:47:54;;;;;;;37.60;24.57;;;5.10;73.90;;;;;;5033454;28;20056;-86
2022/01/11 03:50:20;;;;;;;38.00;25.57;;;5.10;73.80;;;;;;5023246;28;20029;-87
2022/01/11 03:52:59;;;;;;;42.77;26.00;;;5.10;73.80;;;;;;5032530;28;20037;-86
2022/01/11 03:56:21;;;;;;;42.23;25.67;;;5.10;73.80;;;;;;5024951;28;20045;-86
2022/01/11 03:58:14;;;;;;;43.60;28.63;;;5.00;73.80;;;;;;5020609;28;20056;-86
2022/01/11 04:00:40;;;;;;;43.13;26.33;;;5.00;73.80;;;;;;5034003;28;20488;-86
2022/01/11 04:03:06;;;;;;;46.50;26.60;;;5.00;73.90;;;;;;5033298;28;20017;-86
2022/01/11 04:05:32;;;;;;;41.80;24.20;;;5.10;73.80;;;;;;5032729;28;20060;-86
2022/01/11 04:07:58;;;;;;;34.17;23.50;;;5.00;73.70;;;;;;5042864;28;20027;-86
2022/01/11 04:10:24;;;;;;;37.40;23.13;;;5.00;73.70;;;;;;5038174;28;20030;-86
2022/01/11 04:12:50;;;;;;;33.00;20.97;;;5.00;73.80;;;;;;5048684;28;20022;-86
2022/01/11 04:15:16;;;;;;;31.50;21.43;;;5.00;73.80;;;;;;5036282;28;20029;-86
2022/01/11 04:17:42;;;;;;;30.10;20.80;;;5.10;73.80;;;;;;5026136;28;20494;-86
2022/01/11 04:20:09;;;;;;;38.30;22.80;;;5.10;73.60;;;;;;5033655;28;20529;-86
2022/01/11 04:22:35;;;;;;;38.13;23.93;;;5.10;73.50;;;;;;5033119;28;20036;-86
2022/01/11 04:25:01;;;;;;;35.93;22.27;;;5.10;73.50;;;;;;5028340;28;20030;-86
2022/01/11 04:27:27;;;;;;;36.10;21.83;;;5.10;73.40;;;;;;5033216;28;20033;-86
2022/01/11 04:29:52;;;;;;;33.00;21.40;;;5.10;73.40;;;;;;5037083;28;20099;-86
2022/01/11 04:32:18;;;;;;;35.77;21.87;;;5.10;73.40;;;;;;5034856;28;20021;-86
2022/01/11 04:34:44;;;;;;;33.43;21.93;;;5.10;73.40;;;;;;5036068;28;20483;-86
2022/01/11 04:37:10;;;;;;;36.70;22.13;;;5.10;73.30;;;;;;5029887;28;20033;-86
2022/01/11 04:39:35;;;;;;;32.90;22.00;;;5.10;73.20;;;;;;5032372;28;20148;-86
2022/01/11 04:42:01;;;;;;;36.40;22.60;;;5.10;73.20;;;;;;5034236;28;20566;-86
2022/01/11 04:44:27;;;;;;;30.47;21.07;;;5.10;73.20;;;;;;5030911;28;20033;-86
2022/01/11 04:46:54;;;;;;;36.23;22.57;;;5.10;73.20;;;;;;5046735;28;20022;-86
2022/01/11 04:49:20;;;;;;;34.17;21.67;;;5.10;73.30;;;;;;5031994;28;20017;-86
2022/01/11 04:51:46;;;;;;;37.53;22.97;;;5.10;73.00;;;;;;5033911;28;20083;-86
2022/01/11 04:54:12;;;;;;;41.07;23.67;;;5.10;73.00;;;;;;5032699;28;20119;-86
2022/01/11 04:56:38;;;;;;;47.60;26.60;;;5.10;73.00;;;;;;5046916;28;20428;-86
2022/01/11 04:59:04;;;;;;;41.03;26.13;;;5.10;73.00;;;;;;5045549;28;20022;-86
2022/01/11 05:01:31;;;;;;;44.47;25.47;;;5.10;73.00;;;;;;5030535;28;20025;-84
2022/01/11 05:03:57;;;;;;;39.97;25.07;;;5.10;73.10;;;;;;5033964;28;20489;-86
2022/01/11 05:06:23;;;;;;;40.53;24.73;;;5.10;73.10;;;;;;5033621;28;20086;-86
2022/01/11 05:08:49;;;;;;;42.80;24.87;;;5.10;73.10;;;;;;5033120;28;20029;-85
2022/01/11 05:11:15;;;;;;;40.33;25.50;;;5.00;73.00;;;;;;5038867;28;20033;-86
2022/01/11 05:13:41;;;;;;;37.10;24.23;;;5.00;73.10;;;;;;5037568;28;20104;-86
2022/01/11 05:16:08;;;;;;;45.73;31.47;;;5.00;73.20;;;;;;5029012;28;20585;-86
2022/01/11 05:18:36;;;;;;;49.90;32.60;;;5.00;73.20;;;;;;5030991;28;20049;-86
2022/01/11 05:21:03;;;;;;;45.43;29.27;;;5.00;73.10;;;;;;5030250;28;20146;-86
2022/01/11 05:23:29;;;;;;;44.87;27.83;;;5.00;73.20;;;;;;5033491;28;20510;-86
2022/01/11 05:25:55;;;;;;;38.93;24.07;;;4.90;73.20;;;;;;5030227;28;20399;-85
2022/01/11 05:28:21;;;;;;;35.00;23.10;;;4.90;73.10;;;;;;5034957;28;20041;-86
2022/01/11 05:30:47;;;;;;;37.00;24.97;;;5.00;73.20;;;;;;5017468;28;20064;-86
2022/01/11 05:33:13;;;;;;;35.57;22.43;;;5.00;73.00;;;;;;5036903;28;20029;-86
2022/01/11 05:35:39;;;;;;;40.57;23.67;;;4.90;72.90;;;;;;5031507;28;20041;-86
2022/01/11 05:38:04;;;;;;;36.13;22.27;;;5.00;73.10;;;;;;5030443;28;20028;-86
2022/01/11 05:40:30;;;;;;;37.50;23.07;;;5.00;73.10;;;;;;5031141;28;20030;-86
2022/01/11 05:42:56;;;;;;;40.50;24.87;;;5.00;73.00;;;;;;5031976;28;20021;-85
2022/01/11 05:45:22;;;;;;;46.67;24.97;;;5.00;73.00;;;;;;5036868;28;20504;-86
2022/01/11 05:47:52;;;;;;;45.10;24.13;;;5.00;73.10;;;;;;5032592;28;20029;-86
2022/01/11 05:50:18;;;;;;;53.97;28.90;;;5.00;73.00;;;;;;5031761;28;20029;-86
2022/01/11 05:52:44;;;;;;;45.63;28.70;;;5.00;73.00;;;;;;5040169;28;20021;-86
2022/01/11 05:55:11;;;;;;;46.07;28.70;;;5.00;73.20;;;;;;5034313;28;20113;-86
2022/01/11 05:57:37;;;;;;;50.97;27.93;;;4.90;73.10;;;;;;5030958;28;20025;-86
2022/01/11 06:00:07;;;;;;;50.93;29.10;;;4.90;73.30;;;;;;5029252;28;20025;-86
2022/01/11 06:02:33;;;;;;;44.33;29.10;;;4.90;73.40;;;;;;5028947;28;20060;-86
2022/01/11 06:04:59;;;;;;;53.50;28.37;;;5.00;73.40;;;;;;5046636;28;20480;-86
2022/01/11 06:07:25;;;;;;;56.10;28.63;;;4.90;73.40;;;;;;5031363;28;20104;-86
2022/01/11 06:09:50;;;;;;;49.23;30.10;;;5.00;73.30;;;;;;5031413;28;20117;-86
2022/01/11 06:12:16;;;;;;;52.90;29.73;;;4.90;73.40;;;;;;5047842;28;20032;-86
2022/01/11 06:14:42;;;;;;;45.97;29.50;;;5.00;73.40;;;;;;5026094;28;20064;-86
2022/01/11 06:17:08;;;;;;;55.17;28.93;;;4.90;73.40;;;;;;5049484;28;20040;-86
2022/01/11 06:19:34;;;;;;;54.20;29.90;;;4.90;73.50;;;;;;5025543;28;20018;-86
2022/01/11 06:22:00;;;;;;;51.33;28.77;;;4.90;73.50;;;;;;5046006;28;20025;-86
2022/01/11 06:24:26;;;;;;;45.73;27.77;;;4.90;73.50;;;;;;5045347;28;20025;-85
2022/01/11 06:26:52;;;;;;;51.00;29.07;;;4.90;73.60;;;;;;5042680;28;20033;-86
2022/01/11 06:29:18;;;;;;;51.97;29.07;;;4.90;73.60;;;;;;5032856;28;20021;-86
2022/01/11 06:31:43;;;;;;;47.33;29.27;;;4.90;73.70;;;;;;5028650;28;20034;-85
2022/01/11 06:34:10;;;;;;;51.07;29.27;;;4.90;73.70;;;;;;5029019;28;20451;-85
2022/01/11 06:36:36;;;;;;;51.63;28.03;;;4.90;73.70;;;;;;5026995;28;20479;-86
2022/01/11 06:39:03;;;;;;;47.20;28.40;;;4.90;73.80;;;;;;5030929;28;20025;-86
2022/01/11 06:41:28;;;;;;;49.90;28.37;;;4.90;73.70;;;;;;5030472;28;20020;-86
2022/01/11 06:43:54;;;;;;;47.13;27.77;;;4.90;73.80;;;;;;5027922;28;20059;-86
2022/01/11 06:46:23;;;;;;;45.90;28.67;;;4.90;73.80;;;;;;5024906;28;20389;-86
2022/01/11 06:48:52;;;;;;;48.17;27.67;;;4.90;73.70;;;;;;5030588;28;20057;-86
2022/01/11 06:51:19;;;;;;;43.07;26.63;;;4.90;73.70;;;;;;5031334;28;20496;-86
2022/01/11 06:53:46;;;;;;;49.40;28.23;;;4.90;73.60;;;;;;5035123;28;20059;-86
2022/01/11 06:56:11;;;;;;;48.63;27.87;;;5.00;73.60;;;;;;5032314;28;20030;-86
2022/01/11 06:58:38;;;;;;;48.97;28.57;;;5.00;73.70;;;;;;5029014;28;20025;-86
2022/01/11 07:01:04;;;;;;;48.03;28.30;;;4.90;73.60;;;;;;5044117;28;20061;-86
2022/01/11 07:03:30;;;;;;;45.30;27.33;;;5.00;73.60;;;;;;5031473;28;20029;-86
2022/01/11 07:05:56;;;;;;;42.83;25.93;;;5.00;73.50;;;;;;5032160;28;20033;-86
2022/01/11 07:08:24;;;;;;;50.80;28.90;;;5.10;73.60;;;;;;5034808;28;20712;-86
2022/01/11 07:10:50;;;;;;;49.60;29.00;;;5.10;73.40;;;;;;5042005;28;20022;-86
2022/01/11 07:13:16;;;;;;;49.40;29.03;;;5.00;73.40;;;;;;5045422;28;20041;-86
2022/01/11 07:15:42;;;;;;;45.43;25.53;;;5.00;73.40;;;;;;5046477;28;20038;-86
2022/01/11 07:18:10;;;;;;;44.23;25.50;;;4.90;73.30;;;;;;5044107;28;20029;-84
2022/01/11 07:20:37;;;;;;;45.23;24.03;;;4.90;73.50;;;;;;5050896;28;20037;-87
2022/01/11 07:23:04;;;;;;;41.27;24.87;;;4.90;73.50;;;;;;5031802;28;20507;-87
2022/01/11 07:25:33;;;;;;;42.97;24.53;;;4.90;73.40;;;;;;5040845;28;20029;-86
2022/01/11 07:27:59;;;;;;;43.80;24.50;;;4.80;73.60;;;;;;5050322;28;20120;-86
2022/01/11 07:30:25;;;;;;;45.00;26.43;;;4.80;74.20;;;;;;5034532;28;20029;-86
2022/01/11 07:32:51;;;;;;;45.63;26.50;;;4.90;73.70;;;;;;5030492;28;20032;-86
2022/01/11 07:35:17;;;;;;;46.53;26.87;;;4.90;73.60;;;;;;5046550;28;20105;-86
2022/01/11 07:37:43;;;;;;;50.90;28.13;;;4.90;73.60;;;;;;5029429;28;20073;-86
2022/01/11 07:40:10;;;;;;;53.43;28.67;;;4.90;73.80;;;;;;5028806;28;20120;-87
2022/01/11 07:42:36;;;;;;;49.10;27.83;;;4.90;73.60;;;;;;5028183;28;20037;-86
2022/01/11 07:45:02;;;;;;;46.87;26.70;;;4.90;73.80;;;;;;5030237;28;20033;-86
2022/01/11 07:47:28;;;;;;;37.67;20.83;;;4.90;73.70;;;;;;5029367;28;20052;-86
2022/01/11 07:49:54;;;;;;;31.20;17.23;;;4.80;73.50;;;;;;5024875;28;20029;-86
2022/01/11 07:52:20;;;;;;;22.93;13.57;;;4.80;73.60;;;;;;5032306;28;20025;-86
2022/01/11 07:54:46;;;;;;;25.83;13.20;;;4.80;73.60;;;;;;5031419;28;20022;-86
2022/01/11 07:57:12;;;;;;;24.40;14.60;;;4.80;73.60;;;;;;5034180;28;20032;-86
2022/01/11 07:59:38;;;;;;;24.73;13.67;;;4.80;73.50;;;;;;5049514;28;20030;-86
2022/01/11 08:02:04;;;;;;;29.17;16.73;;;4.80;73.40;;;;;;5030382;28;20049;-87
2022/01/11 08:04:33;;;;;;;32.83;18.73;;;4.90;73.40;;;;;;5029982;28;20383;-87
2022/01/11 08:06:59;;;;;;;35.37;20.00;;;4.90;73.40;;;;;;5033267;28;20032;-86
2022/01/11 08:09:26;;;;;;;37.17;20.73;;;4.90;73.30;;;;;;5046520;28;20017;-87
2022/01/11 08:11:55;;;;;;;44.03;21.67;;;4.90;73.20;;;;;;5033193;28;20116;-86
2022/01/11 08:16:54;;;;;;;43.20;22.60;;;4.90;73.30;;;;;;5009285;28;20046;-86
2022/01/11 08:19:24;;;;;;;40.97;24.17;;;4.90;73.30;;;;;;4997533;28;20037;-86
2022/01/11 08:21:55;;;;;;;41.53;24.90;;;4.90;73.20;;;;;;4998432;28;20483;-86
2022/01/11 08:24:24;;;;;;;38.93;22.83;;;4.90;73.40;;;;;;4994172;28;20026;-86
2022/01/11 08:26:51;;;;;;;39.07;22.47;;;4.90;73.40;;;;;;4996879;28;20029;-86
2022/01/11 08:29:18;;;;;;;41.67;24.00;;;5.00;73.30;;;;;;5004080;28;20068;-86
2022/01/11 08:31:47;;;;;;;40.23;22.90;;;5.00;73.20;;;;;;4979363;28;20062;-86
2022/01/11 08:34:14;;;;;;;36.93;20.10;;;5.00;73.20;;;;;;5014610;28;20496;-87
2022/01/11 08:36:45;;;;;;;32.00;16.63;;;5.00;73.10;;;;;;4997174;28;20061;-87
2022/01/11 08:39:12;;;;;;;22.77;14.33;;;5.00;73.00;;;;;;4998052;28;20077;-86
2022/01/11 08:41:41;;;;;;;22.10;14.20;;;5.00;72.90;;;;;;4996619;28;20153;-86
2022/01/11 08:44:09;;;;;;;19.30;12.80;;;5.00;72.80;;;;;;4996367;28;20032;-86
2022/01/11 08:46:37;;;;;;;22.57;13.67;;;5.00;72.90;;;;;;4997553;28;20045;-86
2022/01/11 08:49:04;;;;;;;29.20;18.00;;;5.00;72.80;;;;;;4979371;28;20088;-86
2022/01/11 08:51:30;;;;;;;20.93;13.97;;;5.00;72.70;;;;;;4994568;28;20061;-86
2022/01/11 08:53:56;;;;;;;24.47;15.03;;;4.90;72.40;;;;;;4989144;28;20150;-87
2022/01/11 08:56:22;;;;;;;29.47;17.27;;;4.90;72.70;;;;;;4997327;28;20436;-86
2022/01/11 08:58:48;;;;;;;31.40;16.60;;;4.90;72.70;;;;;;4997453;28;20365;-86
2022/01/11 09:01:14;;;;;;;29.80;15.73;;;4.90;72.50;;;;;;4991228;28;20465;-86
2022/01/11 09:03:40;;;;;;;27.53;16.70;;;5.00;72.70;;;;;;4986342;28;20026;-86
2022/01/11 09:06:08;;;;;;;25.70;15.37;;;5.00;72.70;;;;;;4985949;28;20026;-86
2022/01/11 09:08:37;;;;;;;23.43;14.50;;;5.00;72.60;;;;;;4993080;28;20034;-86
2022/01/11 09:11:05;;;;;;;24.63;15.97;;;5.00;72.60;;;;;;4996168;28;20038;-86
2022/01/11 09:13:32;;;;;;;25.87;16.07;;;5.10;72.30;;;;;;4995724;28;20084;-86
2022/01/11 09:15:58;;;;;;;24.83;15.60;;;5.00;72.40;;;;;;4995824;28;20041;-85
2022/01/11 09:18:24;;;;;;;25.83;16.17;;;5.10;72.40;;;;;;5013987;28;20083;-86
2022/01/11 09:20:49;;;;;;;29.77;17.90;;;5.10;72.40;;;;;;5014401;28;20144;-86
2022/01/11 09:23:15;;;;;;;30.93;17.47;;;5.20;72.30;;;;;;4995903;28;20984;-86
2022/01/11 09:25:41;;;;;;;32.03;18.20;;;5.20;72.10;;;;;;4996844;28;20037;-86
2022/01/11 09:28:08;;;;;;;32.03;19.40;;;5.30;72.20;;;;;;4996938;28;20021;-86
2022/01/11 09:30:34;;;;;;;33.00;19.60;;;5.40;72.10;;;;;;4996431;28;20030;-86
2022/01/11 09:33:00;;;;;;;30.07;19.57;;;5.40;71.90;;;;;;4994926;28;20025;-86
2022/01/11 09:35:26;;;;;;;29.60;14.03;;;5.40;71.80;;;;;;4991284;28;20383;-86
2022/01/11 09:37:52;;;;;;;17.93;12.03;;;5.50;71.80;;;;;;4996582;28;20022;-87
2022/01/11 09:40:18;;;;;;;17.30;10.73;;;5.50;71.80;;;;;;4996579;28;20117;-86
2022/01/11 09:42:44;;;;;;;17.13;10.70;;;5.50;71.70;;;;;;4995104;28;20037;-86
2022/01/11 09:45:11;;;;;;;20.00;11.50;;;5.50;71.60;;;;;;4992675;28;20480;-86
2022/01/11 09:47:41;;;;;;;20.43;11.63;;;5.50;71.60;;;;;;4992034;28;20041;-86
2022/01/11 09:50:09;;;;;;;17.30;12.23;;;5.50;71.40;;;;;;4989921;28;20026;-87
2022/01/11 09:52:36;;;;;;;16.73;10.97;;;5.50;71.40;;;;;;4992850;28;20046;-86
2022/01/11 09:55:04;;;;;;;16.37;10.47;;;5.50;71.50;;;;;;4996105;28;20149;-86
2022/01/11 09:57:30;;;;;;;14.77;10.07;;;5.50;71.40;;;;;;4990997;28;20033;-86
2022/01/11 09:59:56;;;;;;;16.30;10.63;;;5.50;71.30;;;;;;4992964;28;20095;-86
2022/01/11 10:02:22;;;;;;;15.17;9.63;;;5.60;71.10;;;;;;4991240;28;20496;-86
2022/01/11 10:04:56;;;;;;;14.87;10.07;;;5.60;70.90;;;;;;4996327;28;20498;-86
2022/01/11 10:07:31;;;;;;;13.53;8.80;;;5.50;70.80;;;;;;5013771;28;20124;-86
2022/01/11 10:09:58;;;;;;;14.40;8.93;;;5.50;70.60;;;;;;4996012;28;20029;-87
2022/01/11 10:12:24;;;;;;;12.40;8.83;;;5.50;70.80;;;;;;5011801;28;20032;-86
2022/01/11 10:14:53;;;;;;;18.70;10.33;;;5.50;70.50;;;;;;5012146;28;20050;-86
2022/01/11 10:17:37;;;;;;;18.50;10.87;;;5.60;70.60;;;;;;4995313;28;20030;-86
2022/01/11 10:20:20;;;;;;;18.10;11.57;;;5.70;70.60;;;;;;4996100;28;20052;-86
2022/01/11 10:23:05;;;;;;;17.43;9.53;;;5.70;70.20;;;;;;4995879;28;20032;-86
2022/01/11 10:25:42;;;;;;;13.57;8.47;;;5.70;70.10;;;;;;4964326;28;20050;-86
2022/01/11 10:28:08;;;;;;;13.37;9.73;;;5.70;70.10;;;;;;4992427;28;20045;-86
2022/01/11 10:30:35;;;;;;;19.93;11.03;;;5.80;70.20;;;;;;4995235;28;20034;-87
2022/01/11 10:33:06;;;;;;;17.97;12.40;;;6.00;70.20;;;;;;5004426;28;20030;-87
2022/01/11 10:35:42;;;;;;;19.97;13.50;;;6.30;70.00;;;;;;4995324;28;20530;-87
2022/01/11 10:38:13;;;;;;;19.83;12.17;;;6.50;69.60;;;;;;4995624;28;20036;-87
2022/01/11 10:40:42;;;;;;;18.50;12.47;;;6.70;69.40;;;;;;4992448;28;20033;-86
2022/01/11 10:43:11;;;;;;;23.30;13.00;;;6.70;68.80;;;;;;4979346;28;20064;-87
2022/01/11 10:45:39;;;;;;;19.47;13.67;;;6.70;68.70;;;;;;4994402;28;20472;-87
2022/01/11 10:48:10;;;;;;;17.13;12.60;;;7.00;68.80;;;;;;4995572;28;20033;-88
2022/01/11 10:50:44;;;;;;;17.80;12.80;;;7.40;68.60;;;;;;4975308;28;20050;-88
2022/01/11 10:53:21;;;;;;;18.97;13.30;;;7.80;68.20;;;;;;4979835;28;20026;-87
2022/01/11 10:55:55;;;;;;;18.90;13.37;;;8.20;67.60;;;;;;4989989;28;20034;-89
2022/01/11 10:58:22;;;;;;;18.07;13.80;;;8.50;66.90;;;;;;4998086;28;20030;-88
2022/01/11 11:00:54;;;;;;;23.77;17.07;;;8.70;66.70;;;;;;4986154;28;20030;-88
2022/01/11 11:03:21;;;;;;;25.27;16.87;;;8.80;66.20;;;;;;5010447;28;20052;-88
2022/01/11 11:05:51;;;;;;;23.07;15.50;;;8.80;66.00;;;;;;4994363;28;20052;-88
2022/01/11 11:08:25;;;;;;;21.40;15.77;;;8.70;65.70;;;;;;4992153;28;20041;-88
2022/01/11 11:10:58;;;;;;;25.93;17.60;;;8.50;65.60;;;;;;4993470;28;20035;-88
2022/01/11 11:13:46;;;;;;;25.97;17.63;;;8.30;65.70;;;;;;4993871;28;20176;-88
2022/01/11 11:16:16;;;;;;;22.07;16.30;;;8.00;65.40;;;;;;4995550;28;20057;-87
2022/01/11 11:18:54;;;;;;;24.30;16.43;;;7.70;65.30;;;;;;5003195;28;20022;-88
2022/01/11 11:21:21;;;;;;;22.93;15.03;;;7.50;65.30;;;;;;5003480;28;20033;-88
2022/01/11 11:23:52;;;;;;;20.80;15.27;;;7.40;65.10;;;;;;4995620;28;20107;-88
2022/01/11 11:26:20;;;;;;;24.40;16.17;;;7.30;65.10;;;;;;4992826;28;20188;-87
2022/01/11 11:28:46;;;;;;;20.87;14.73;;;7.20;65.10;;;;;;4998400;28;20029;-88
2022/01/11 11:31:13;;;;;;;21.03;15.60;;;7.10;64.90;;;;;;4991688;28;20022;-88
2022/01/11 11:33:40;;;;;;;21.20;14.70;;;7.10;64.80;;;;;;4993508;28;20468;-88
2022/01/11 11:36:07;;;;;;;22.77;15.43;;;7.00;64.60;;;;;;5009944;28;20029;-87
2022/01/11 11:38:39;;;;;;;22.70;15.43;;;7.00;64.50;;;;;;4998554;28;20077;-87
2022/01/11 11:41:05;;;;;;;;;;;6.90;64.60;;;;;;4990722;28;20022;-87
2022/01/11 11:43:32;;;;;;;23.43;15.43;;;6.90;64.90;;;;;;4997203;28;19956;-87
2022/01/11 11:45:58;;;;;;;29.47;18.73;;;7.00;64.90;;;;;;4999371;28;20022;-88
2022/01/11 11:48:26;;;;;;;26.83;19.17;;;7.20;64.90;;;;;;5019644;28;20080;-88
2022/01/11 11:51:00;;;;;;;27.43;19.07;;;7.30;64.60;;;;;;4988225;28;20480;-87
2022/01/11 11:53:26;;;;;;;23.97;16.93;;;7.40;64.70;;;;;;5002251;28;20022;-88
2022/01/11 11:56:13;;;;;;;23.93;17.20;;;7.40;64.40;;;;;;5007603;28;20034;-87
2022/01/11 11:58:51;;;;;;;25.53;17.00;;;7.70;64.30;;;;;;5002108;28;20034;-87
2022/01/11 12:01:41;;;;;;;25.20;17.83;;;7.90;63.90;;;;;;4994852;28;20022;-88
2022/01/11 12:04:12;;;;;;;25.13;18.07;;;8.10;63.80;;;;;;4989945;28;20165;-88
2022/01/11 12:06:38;;;;;;;23.40;17.00;;;8.10;63.60;;;;;;4999399;28;20037;-87
2022/01/11 12:09:10;;;;;;;25.20;17.23;;;8.10;63.50;;;;;;4994379;28;20080;-87
2022/01/11 12:11:39;;;;;;;27.35;16.98;;;8.20;63.40;;;;;;4995497;28;20476;-87
2022/01/11 12:14:05;;;;;;;22.73;16.00;;;8.20;63.30;;;;;;4998410;28;20429;-88
2022/01/11 12:16:36;;;;;;;23.10;15.23;;;8.10;63.20;;;;;;4995309;28;20041;-87
2022/01/11 12:19:06;;;;;;;23.13;16.20;;;8.00;63.10;;;;;;4996596;28;20072;-88
2022/01/11 12:21:43;;;;;;;22.10;15.17;;;8.20;63.00;;;;;;4997357;28;20030;-88
2022/01/11 12:24:10;;;;;;;22.60;15.60;;;8.40;62.90;;;;;;4997750;28;20484;-88
2022/01/11 12:26:37;;;;;;;24.70;15.43;;;8.50;62.10;;;;;;4997396;28;20097;-87
2022/01/11 12:29:03;;;;;;;21.10;16.30;;;8.60;61.80;;;;;;4996878;28;20041;-88
2022/01/11 12:31:53;;;;;;;18.50;15.07;;;8.60;61.60;;;;;;5013905;28;20018;-88
2022/01/11 12:34:39;;;;;;;18.03;13.67;;;8.60;61.50;;;;;;4992133;28;20480;-88
2022/01/11 12:37:05;;;;;;;20.73;14.47;;;8.70;61.40;;;;;;5013240;28;20028;-88
2022/01/11 12:39:32;;;;;;;18.70;13.77;;;8.80;61.10;;;;;;4994302;28;20038;-87
2022/01/11 12:41:59;;;;;;;18.63;13.93;;;8.80;60.90;;;;;;4989873;28;20030;-88
2022/01/11 12:47:10;;;;;;;27.20;14.77;;;8.80;60.60;;;;;;5015866;28;20053;-88
2022/01/11 12:49:41;;;;;;;18.87;13.23;;;8.70;60.80;;;;;;4997617;28;20276;-87